Advance, North Carolina
Current Conditions -  °F | °C
As of 7:35 PM on Saturday 22 Nov 2014 (Local Time) from KEXX Reporting Station
Clear Clear  
Wind Chill: 39°   Ceiling: Unl
Heat Index: 39°   Visibility: 10mi
Dew Point: 20°   Wind: 0mph
Humidity: 46%   Direction: NA
Pressure: 30.36"   Gusts: NA
Location:  35.95°N, 80.41°W
Report Text: KEXX 230035Z AUTO 00000KT 10SM CLR 04/M07 A3036 RMK AO2 T00401067
Loading
Personal Weather Stations






























Interactive Weather Map New forecast layout! Learn more

10-Day Weather Forecast

Advertisements
Track Severe Weather on mobile